sensor_id;sensor_type;location;lat;lon;timestamp;P1;durP1;ratioP1;P2;durP2;ratioP2
30472;SDS011;17263;48.160;11.452;2022-09-09T00:04:37;2.77;;;1.60;;
30472;SDS011;17263;48.160;11.452;2022-09-09T00:08:11;1.33;;;1.23;;
30472;SDS011;17263;48.160;11.452;2022-09-09T00:10:39;1.97;;;1.60;;
30472;SDS011;17263;48.160;11.452;2022-09-09T00:13:29;4.10;;;1.80;;
30472;SDS011;17263;48.160;11.452;2022-09-09T00:16:32;1.57;;;1.30;;
30472;SDS011;17263;48.160;11.452;2022-09-09T00:19:27;2.17;;;1.50;;
30472;SDS011;17263;48.160;11.452;2022-09-09T00:22:36;2.60;;;1.57;;
30472;SDS011;17263;48.160;11.452;2022-09-09T00:25:34;2.30;;;1.60;;
30472;SDS011;17263;48.160;11.452;2022-09-09T00:28:28;2.07;;;1.30;;
30472;SDS011;17263;48.160;11.452;2022-09-09T00:31:23;1.43;;;1.33;;
30472;SDS011;17263;48.160;11.452;2022-09-09T00:34:13;3.00;;;1.53;;
30472;SDS011;17263;48.160;11.452;2022-09-09T00:37:03;1.80;;;1.33;;
30472;SDS011;17263;48.160;11.452;2022-09-09T00:39:50;3.07;;;1.63;;
30472;SDS011;17263;48.160;11.452;2022-09-09T00:42:43;2.97;;;1.47;;
30472;SDS011;17263;48.160;11.452;2022-09-09T00:54:52;2.10;;;1.53;;
30472;SDS011;17263;48.160;11.452;2022-09-09T00:57:44;4.30;;;1.40;;
30472;SDS011;17263;48.160;11.452;2022-09-09T01:00:35;1.97;;;1.60;;
30472;SDS011;17263;48.160;11.452;2022-09-09T01:03:48;3.73;;;1.50;;
30472;SDS011;17263;48.160;11.452;2022-09-09T01:06:40;4.00;;;1.40;;
30472;SDS011;17263;48.160;11.452;2022-09-09T01:12:27;2.67;;;1.77;;
30472;SDS011;17263;48.160;11.452;2022-09-09T01:15:25;3.37;;;1.70;;
30472;SDS011;17263;48.160;11.452;2022-09-09T01:18:16;3.70;;;1.73;;
30472;SDS011;17263;48.160;11.452;2022-09-09T01:24:27;2.50;;;1.60;;
30472;SDS011;17263;48.160;11.452;2022-09-09T01:27:20;2.43;;;1.10;;
30472;SDS011;17263;48.160;11.452;2022-09-09T01:30:10;2.73;;;1.70;;
30472;SDS011;17263;48.160;11.452;2022-09-09T01:32:58;2.00;;;1.60;;
30472;SDS011;17263;48.160;11.452;2022-09-09T01:38:46;3.63;;;1.60;;
30472;SDS011;17263;48.160;11.452;2022-09-09T01:41:32;1.90;;;1.47;;
30472;SDS011;17263;48.160;11.452;2022-09-09T01:44:19;2.43;;;1.80;;
30472;SDS011;17263;48.160;11.452;2022-09-09T01:47:06;1.83;;;1.60;;
30472;SDS011;17263;48.160;11.452;2022-09-09T01:49:52;3.73;;;1.50;;
30472;SDS011;17263;48.160;11.452;2022-09-09T01:52:39;3.60;;;1.50;;
30472;SDS011;17263;48.160;11.452;2022-09-09T01:55:28;2.20;;;1.40;;
30472;SDS011;17263;48.160;11.452;2022-09-09T01:58:29;1.23;;;1.13;;
30472;SDS011;17263;48.160;11.452;2022-09-09T02:01:46;2.97;;;1.60;;
30472;SDS011;17263;48.160;11.452;2022-09-09T02:04:47;3.20;;;1.50;;
30472;SDS011;17263;48.160;11.452;2022-09-09T02:07:42;2.70;;;1.87;;
30472;SDS011;17263;48.160;11.452;2022-09-09T02:17:19;3.03;;;1.70;;
30472;SDS011;17263;48.160;11.452;2022-09-09T02:20:14;4.77;;;2.00;;
30472;SDS011;17263;48.160;11.452;2022-09-09T02:23:04;1.63;;;1.43;;
30472;SDS011;17263;48.160;11.452;2022-09-09T02:25:54;3.53;;;1.80;;
30472;SDS011;17263;48.160;11.452;2022-09-09T02:28:43;2.30;;;1.70;;
30472;SDS011;17263;48.160;11.452;2022-09-09T02:31:30;3.07;;;2.13;;
30472;SDS011;17263;48.160;11.452;2022-09-09T02:34:21;2.30;;;1.87;;
30472;SDS011;17263;48.160;11.452;2022-09-09T02:37:09;2.10;;;1.90;;
30472;SDS011;17263;48.160;11.452;2022-09-09T02:39:58;4.23;;;1.80;;
30472;SDS011;17263;48.160;11.452;2022-09-09T02:42:45;2.40;;;1.70;;
30472;SDS011;17263;48.160;11.452;2022-09-09T02:45:45;2.50;;;1.57;;
30472;SDS011;17263;48.160;11.452;2022-09-09T02:48:47;2.37;;;1.53;;
30472;SDS011;17263;48.160;11.452;2022-09-09T02:51:56;2.23;;;1.40;;
30472;SDS011;17263;48.160;11.452;2022-09-09T02:54:48;1.80;;;1.50;;
30472;SDS011;17263;48.160;11.452;2022-09-09T02:57:39;2.70;;;1.60;;
30472;SDS011;17263;48.160;11.452;2022-09-09T03:00:28;3.87;;;1.73;;
30472;SDS011;17263;48.160;11.452;2022-09-09T03:03:15;2.83;;;1.40;;
30472;SDS011;17263;48.160;11.452;2022-09-09T03:06:03;3.17;;;1.57;;
30472;SDS011;17263;48.160;11.452;2022-09-09T03:08:49;2.53;;;1.53;;
30472;SDS011;17263;48.160;11.452;2022-09-09T03:11:36;3.93;;;1.70;;
30472;SDS011;17263;48.160;11.452;2022-09-09T03:14:24;2.23;;;1.50;;
30472;SDS011;17263;48.160;11.452;2022-09-09T03:17:10;1.60;;;1.37;;
30472;SDS011;17263;48.160;11.452;2022-09-09T03:19:57;1.30;;;1.20;;
30472;SDS011;17263;48.160;11.452;2022-09-09T03:22:44;1.93;;;1.70;;
30472;SDS011;17263;48.160;11.452;2022-09-09T03:25:30;2.07;;;1.50;;
30472;SDS011;17263;48.160;11.452;2022-09-09T03:28:18;1.83;;;1.33;;
30472;SDS011;17263;48.160;11.452;2022-09-09T03:31:05;2.30;;;1.50;;
30472;SDS011;17263;48.160;11.452;2022-09-09T03:33:52;1.63;;;1.50;;
30472;SDS011;17263;48.160;11.452;2022-09-09T03:36:38;4.50;;;1.33;;
30472;SDS011;17263;48.160;11.452;2022-09-09T03:39:24;2.60;;;1.50;;
30472;SDS011;17263;48.160;11.452;2022-09-09T03:42:14;2.90;;;1.83;;
30472;SDS011;17263;48.160;11.452;2022-09-09T03:45:08;3.13;;;1.60;;
30472;SDS011;17263;48.160;11.452;2022-09-09T03:47:56;2.50;;;1.40;;
30472;SDS011;17263;48.160;11.452;2022-09-09T03:50:49;3.97;;;1.60;;
30472;SDS011;17263;48.160;11.452;2022-09-09T03:53:37;2.43;;;1.57;;
30472;SDS011;17263;48.160;11.452;2022-09-09T03:56:24;2.30;;;1.40;;
30472;SDS011;17263;48.160;11.452;2022-09-09T03:59:10;1.60;;;1.30;;
30472;SDS011;17263;48.160;11.452;2022-09-09T04:01:56;1.77;;;1.37;;
30472;SDS011;17263;48.160;11.452;2022-09-09T04:04:44;5.17;;;1.40;;
30472;SDS011;17263;48.160;11.452;2022-09-09T04:07:31;2.90;;;1.40;;
30472;SDS011;17263;48.160;11.452;2022-09-09T04:10:18;2.37;;;1.30;;
30472;SDS011;17263;48.160;11.452;2022-09-09T04:13:04;2.30;;;1.47;;
30472;SDS011;17263;48.160;11.452;2022-09-09T04:15:51;2.37;;;1.33;;
30472;SDS011;17263;48.160;11.452;2022-09-09T04:18:39;1.73;;;1.47;;
30472;SDS011;17263;48.160;11.452;2022-09-09T04:21:25;2.47;;;1.50;;
30472;SDS011;17263;48.160;11.452;2022-09-09T04:24:12;2.47;;;1.73;;
30472;SDS011;17263;48.160;11.452;2022-09-09T04:26:58;2.90;;;1.40;;
30472;SDS011;17263;48.160;11.452;2022-09-09T04:29:44;2.60;;;1.47;;
30472;SDS011;17263;48.160;11.452;2022-09-09T04:32:32;2.93;;;1.20;;
30472;SDS011;17263;48.160;11.452;2022-09-09T04:35:22;4.17;;;1.60;;
30472;SDS011;17263;48.160;11.452;2022-09-09T04:38:08;2.70;;;1.63;;
30472;SDS011;17263;48.160;11.452;2022-09-09T04:40:55;1.93;;;1.20;;
30472;SDS011;17263;48.160;11.452;2022-09-09T04:43:41;4.07;;;1.40;;
30472;SDS011;17263;48.160;11.452;2022-09-09T04:46:28;1.87;;;1.30;;
30472;SDS011;17263;48.160;11.452;2022-09-09T04:49:14;3.70;;;1.60;;
30472;SDS011;17263;48.160;11.452;2022-09-09T04:52:01;3.87;;;1.47;;
30472;SDS011;17263;48.160;11.452;2022-09-09T04:54:50;3.60;;;1.50;;
30472;SDS011;17263;48.160;11.452;2022-09-09T04:57:36;2.33;;;1.50;;
30472;SDS011;17263;48.160;11.452;2022-09-09T05:00:23;1.53;;;1.40;;
30472;SDS011;17263;48.160;11.452;2022-09-09T05:03:10;1.77;;;1.40;;
30472;SDS011;17263;48.160;11.452;2022-09-09T05:06:08;3.47;;;1.43;;
30472;SDS011;17263;48.160;11.452;2022-09-09T05:08:58;2.60;;;1.50;;
30472;SDS011;17263;48.160;11.452;2022-09-09T05:11:45;1.70;;;1.33;;
30472;SDS011;17263;48.160;11.452;2022-09-09T05:14:32;3.07;;;1.53;;
30472;SDS011;17263;48.160;11.452;2022-09-09T05:17:18;3.53;;;1.40;;
30472;SDS011;17263;48.160;11.452;2022-09-09T05:20:05;1.93;;;1.20;;
30472;SDS011;17263;48.160;11.452;2022-09-09T05:22:55;2.23;;;1.50;;
30472;SDS011;17263;48.160;11.452;2022-09-09T05:25:42;4.60;;;1.50;;
30472;SDS011;17263;48.160;11.452;2022-09-09T05:28:29;1.80;;;1.47;;
30472;SDS011;17263;48.160;11.452;2022-09-09T05:31:16;3.00;;;1.70;;
30472;SDS011;17263;48.160;11.452;2022-09-09T05:34:04;2.70;;;1.43;;
30472;SDS011;17263;48.160;11.452;2022-09-09T05:36:50;1.97;;;1.70;;
30472;SDS011;17263;48.160;11.452;2022-09-09T05:39:37;4.10;;;1.67;;
30472;SDS011;17263;48.160;11.452;2022-09-09T05:42:24;1.87;;;1.40;;
30472;SDS011;17263;48.160;11.452;2022-09-09T05:45:10;3.57;;;1.40;;
30472;SDS011;17263;48.160;11.452;2022-09-09T05:47:57;1.73;;;1.27;;
30472;SDS011;17263;48.160;11.452;2022-09-09T05:50:52;3.73;;;1.50;;
30472;SDS011;17263;48.160;11.452;2022-09-09T05:53:38;3.73;;;1.40;;
30472;SDS011;17263;48.160;11.452;2022-09-09T05:56:26;1.20;;;1.10;;
30472;SDS011;17263;48.160;11.452;2022-09-09T05:59:13;3.70;;;1.70;;
30472;SDS011;17263;48.160;11.452;2022-09-09T06:02:00;4.50;;;1.87;;
30472;SDS011;17263;48.160;11.452;2022-09-09T06:04:46;2.90;;;1.77;;
30472;SDS011;17263;48.160;11.452;2022-09-09T06:07:33;2.80;;;1.90;;
30472;SDS011;17263;48.160;11.452;2022-09-09T06:10:19;5.23;;;1.90;;
30472;SDS011;17263;48.160;11.452;2022-09-09T06:13:05;2.93;;;1.80;;
30472;SDS011;17263;48.160;11.452;2022-09-09T06:15:52;1.63;;;1.53;;
30472;SDS011;17263;48.160;11.452;2022-09-09T06:18:38;6.27;;;2.10;;
30472;SDS011;17263;48.160;11.452;2022-09-09T06:21:26;2.33;;;1.60;;
30472;SDS011;17263;48.160;11.452;2022-09-09T06:24:14;3.63;;;1.67;;
30472;SDS011;17263;48.160;11.452;2022-09-09T06:27:03;2.20;;;1.40;;
30472;SDS011;17263;48.160;11.452;2022-09-09T06:29:51;1.87;;;1.57;;
30472;SDS011;17263;48.160;11.452;2022-09-09T06:32:37;2.87;;;1.60;;
30472;SDS011;17263;48.160;11.452;2022-09-09T06:35:23;5.07;;;1.40;;
30472;SDS011;17263;48.160;11.452;2022-09-09T06:38:09;1.30;;;1.20;;
30472;SDS011;17263;48.160;11.452;2022-09-09T06:40:57;3.53;;;1.40;;
30472;SDS011;17263;48.160;11.452;2022-09-09T06:43:48;1.70;;;1.40;;
30472;SDS011;17263;48.160;11.452;2022-09-09T06:46:34;4.43;;;1.40;;
30472;SDS011;17263;48.160;11.452;2022-09-09T06:49:21;4.50;;;1.43;;
30472;SDS011;17263;48.160;11.452;2022-09-09T06:52:07;7.03;;;1.50;;
30472;SDS011;17263;48.160;11.452;2022-09-09T06:54:54;3.77;;;1.40;;
30472;SDS011;17263;48.160;11.452;2022-09-09T06:57:41;2.30;;;1.40;;
30472;SDS011;17263;48.160;11.452;2022-09-09T07:00:27;2.77;;;1.30;;
30472;SDS011;17263;48.160;11.452;2022-09-09T07:03:14;1.63;;;1.30;;
30472;SDS011;17263;48.160;11.452;2022-09-09T07:06:00;2.33;;;1.27;;
30472;SDS011;17263;48.160;11.452;2022-09-09T07:08:51;4.10;;;1.50;;
30472;SDS011;17263;48.160;11.452;2022-09-09T07:11:56;3.47;;;1.60;;
30472;SDS011;17263;48.160;11.452;2022-09-09T07:14:45;4.27;;;1.80;;
30472;SDS011;17263;48.160;11.452;2022-09-09T07:17:31;2.47;;;1.80;;
30472;SDS011;17263;48.160;11.452;2022-09-09T07:20:17;1.57;;;1.30;;
30472;SDS011;17263;48.160;11.452;2022-09-09T07:23:05;2.53;;;1.43;;
30472;SDS011;17263;48.160;11.452;2022-09-09T07:25:51;3.03;;;1.50;;
30472;SDS011;17263;48.160;11.452;2022-09-09T07:28:38;3.47;;;1.87;;
30472;SDS011;17263;48.160;11.452;2022-09-09T07:31:27;2.43;;;1.67;;
30472;SDS011;17263;48.160;11.452;2022-09-09T07:34:16;5.40;;;1.97;;
30472;SDS011;17263;48.160;11.452;2022-09-09T07:37:02;5.13;;;1.90;;
30472;SDS011;17263;48.160;11.452;2022-09-09T07:39:48;4.37;;;2.00;;
30472;SDS011;17263;48.160;11.452;2022-09-09T07:42:36;4.57;;;1.80;;
30472;SDS011;17263;48.160;11.452;2022-09-09T07:45:23;2.13;;;1.70;;
30472;SDS011;17263;48.160;11.452;2022-09-09T07:48:09;5.50;;;1.93;;
30472;SDS011;17263;48.160;11.452;2022-09-09T07:51:03;5.90;;;1.70;;
30472;SDS011;17263;48.160;11.452;2022-09-09T07:54:03;2.93;;;2.00;;
30472;SDS011;17263;48.160;11.452;2022-09-09T07:56:52;3.50;;;1.80;;
30472;SDS011;17263;48.160;11.452;2022-09-09T07:59:38;3.07;;;1.80;;
30472;SDS011;17263;48.160;11.452;2022-09-09T08:02:24;3.40;;;1.63;;
30472;SDS011;17263;48.160;11.452;2022-09-09T08:05:13;2.73;;;1.63;;
30472;SDS011;17263;48.160;11.452;2022-09-09T08:08:00;4.67;;;1.97;;
30472;SDS011;17263;48.160;11.452;2022-09-09T08:10:49;3.20;;;1.80;;
30472;SDS011;17263;48.160;11.452;2022-09-09T08:13:36;1.63;;;1.53;;
30472;SDS011;17263;48.160;11.452;2022-09-09T08:16:24;1.60;;;1.50;;
30472;SDS011;17263;48.160;11.452;2022-09-09T08:19:13;5.70;;;1.37;;
30472;SDS011;17263;48.160;11.452;2022-09-09T08:22:03;3.43;;;1.37;;
30472;SDS011;17263;48.160;11.452;2022-09-09T08:24:49;2.10;;;1.40;;
30472;SDS011;17263;48.160;11.452;2022-09-09T08:27:35;2.93;;;1.40;;
30472;SDS011;17263;48.160;11.452;2022-09-09T08:30:22;1.37;;;1.27;;
30472;SDS011;17263;48.160;11.452;2022-09-09T08:33:09;3.63;;;1.70;;
30472;SDS011;17263;48.160;11.452;2022-09-09T08:35:55;2.67;;;1.53;;
30472;SDS011;17263;48.160;11.452;2022-09-09T08:38:42;2.20;;;1.50;;
30472;SDS011;17263;48.160;11.452;2022-09-09T08:51:01;2.37;;;1.70;;
30472;SDS011;17263;48.160;11.452;2022-09-09T08:53:49;2.70;;;1.67;;
30472;SDS011;17263;48.160;11.452;2022-09-09T08:56:37;3.67;;;1.60;;
30472;SDS011;17263;48.160;11.452;2022-09-09T08:59:24;3.20;;;1.60;;
30472;SDS011;17263;48.160;11.452;2022-09-09T09:02:21;3.40;;;1.67;;
30472;SDS011;17263;48.160;11.452;2022-09-09T09:05:32;1.43;;;1.30;;
30472;SDS011;17263;48.160;11.452;2022-09-09T09:11:23;1.70;;;1.10;;
30472;SDS011;17263;48.160;11.452;2022-09-09T09:14:18;1.93;;;1.10;;
30472;SDS011;17263;48.160;11.452;2022-09-09T09:17:16;1.93;;;1.00;;
30472;SDS011;17263;48.160;11.452;2022-09-09T09:20:10;1.33;;;1.00;;
30472;SDS011;17263;48.160;11.452;2022-09-09T09:23:01;1.57;;;1.20;;
30472;SDS011;17263;48.160;11.452;2022-09-09T09:25:49;1.70;;;1.20;;
30472;SDS011;17263;48.160;11.452;2022-09-09T09:28:39;2.90;;;1.20;;
30472;SDS011;17263;48.160;11.452;2022-09-09T09:31:26;2.83;;;1.20;;
30472;SDS011;17263;48.160;11.452;2022-09-09T09:34:15;2.97;;;1.40;;
30472;SDS011;17263;48.160;11.452;2022-09-09T09:37:02;3.87;;;1.50;;
30472;SDS011;17263;48.160;11.452;2022-09-09T09:40:15;3.87;;;1.40;;
30472;SDS011;17263;48.160;11.452;2022-09-09T09:43:04;2.00;;;1.30;;
30472;SDS011;17263;48.160;11.452;2022-09-09T09:45:54;2.60;;;1.30;;
30472;SDS011;17263;48.160;11.452;2022-09-09T09:48:43;2.87;;;1.43;;
30472;SDS011;17263;48.160;11.452;2022-09-09T09:51:31;2.53;;;1.30;;
30472;SDS011;17263;48.160;11.452;2022-09-09T09:54:22;2.90;;;1.40;;
30472;SDS011;17263;48.160;11.452;2022-09-09T09:57:15;5.53;;;1.50;;
30472;SDS011;17263;48.160;11.452;2022-09-09T10:02:59;3.50;;;1.60;;
30472;SDS011;17263;48.160;11.452;2022-09-09T10:05:46;3.13;;;2.10;;
30472;SDS011;17263;48.160;11.452;2022-09-09T10:08:33;3.77;;;1.87;;
30472;SDS011;17263;48.160;11.452;2022-09-09T10:11:44;2.47;;;1.60;;
30472;SDS011;17263;48.160;11.452;2022-09-09T10:15:06;2.73;;;1.30;;
30472;SDS011;17263;48.160;11.452;2022-09-09T10:21:31;1.43;;;1.30;;
30472;SDS011;17263;48.160;11.452;2022-09-09T10:30:24;3.33;;;1.50;;
30472;SDS011;17263;48.160;11.452;2022-09-09T10:36:46;2.13;;;1.50;;
30472;SDS011;17263;48.160;11.452;2022-09-09T10:39:38;2.43;;;1.50;;
30472;SDS011;17263;48.160;11.452;2022-09-09T10:42:30;3.07;;;1.47;;
30472;SDS011;17263;48.160;11.452;2022-09-09T10:45:18;1.60;;;1.30;;
30472;SDS011;17263;48.160;11.452;2022-09-09T10:57:48;2.70;;;1.63;;
30472;SDS011;17263;48.160;11.452;2022-09-09T11:03:26;2.57;;;1.30;;
30472;SDS011;17263;48.160;11.452;2022-09-09T11:06:19;1.83;;;1.20;;
30472;SDS011;17263;48.160;11.452;2022-09-09T11:09:13;1.93;;;1.30;;
30472;SDS011;17263;48.160;11.452;2022-09-09T11:12:03;1.57;;;1.20;;
30472;SDS011;17263;48.160;11.452;2022-09-09T11:15:02;2.03;;;1.20;;
30472;SDS011;17263;48.160;11.452;2022-09-09T11:17:53;2.00;;;1.00;;
30472;SDS011;17263;48.160;11.452;2022-09-09T11:20:44;2.63;;;1.20;;
30472;SDS011;17263;48.160;11.452;2022-09-09T11:23:38;2.73;;;1.40;;
30472;SDS011;17263;48.160;11.452;2022-09-09T11:26:29;2.03;;;1.13;;
30472;SDS011;17263;48.160;11.452;2022-09-09T11:32:32;2.00;;;1.10;;
30472;SDS011;17263;48.160;11.452;2022-09-09T11:42:20;1.70;;;0.93;;
30472;SDS011;17263;48.160;11.452;2022-09-09T11:45:10;0.80;;;0.80;;
30472;SDS011;17263;48.160;11.452;2022-09-09T11:47:57;3.83;;;1.00;;
30472;SDS011;17263;48.160;11.452;2022-09-09T11:50:46;1.27;;;0.90;;
30472;SDS011;17263;48.160;11.452;2022-09-09T11:57:30;2.10;;;1.03;;
30472;SDS011;17263;48.160;11.452;2022-09-09T12:03:35;1.93;;;1.03;;
30472;SDS011;17263;48.160;11.452;2022-09-09T12:06:45;1.97;;;1.10;;
30472;SDS011;17263;48.160;11.452;2022-09-09T12:12:37;1.60;;;1.10;;
30472;SDS011;17263;48.160;11.452;2022-09-09T12:15:25;1.30;;;0.90;;
30472;SDS011;17263;48.160;11.452;2022-09-09T12:18:15;6.60;;;1.40;;
30472;SDS011;17263;48.160;11.452;2022-09-09T12:24:23;3.97;;;1.00;;
30472;SDS011;17263;48.160;11.452;2022-09-09T12:27:24;1.70;;;1.00;;
30472;SDS011;17263;48.160;11.452;2022-09-09T12:30:16;2.70;;;0.90;;
30472;SDS011;17263;48.160;11.452;2022-09-09T12:33:16;1.10;;;0.90;;
30472;SDS011;17263;48.160;11.452;2022-09-09T12:36:03;2.00;;;1.10;;
30472;SDS011;17263;48.160;11.452;2022-09-09T12:38:51;3.00;;;1.00;;
30472;SDS011;17263;48.160;11.452;2022-09-09T12:41:39;1.40;;;0.90;;
30472;SDS011;17263;48.160;11.452;2022-09-09T12:44:25;0.90;;;0.70;;
30472;SDS011;17263;48.160;11.452;2022-09-09T12:47:15;1.57;;;0.90;;
30472;SDS011;17263;48.160;11.452;2022-09-09T12:50:01;2.63;;;1.00;;
30472;SDS011;17263;48.160;11.452;2022-09-09T12:52:52;4.57;;;1.00;;
30472;SDS011;17263;48.160;11.452;2022-09-09T12:55:48;2.90;;;1.10;;
30472;SDS011;17263;48.160;11.452;2022-09-09T12:58:46;2.03;;;0.93;;
30472;SDS011;17263;48.160;11.452;2022-09-09T13:01:37;1.63;;;0.90;;
30472;SDS011;17263;48.160;11.452;2022-09-09T13:04:23;1.50;;;0.90;;
30472;SDS011;17263;48.160;11.452;2022-09-09T13:07:10;1.57;;;0.80;;
30472;SDS011;17263;48.160;11.452;2022-09-09T13:09:57;1.10;;;0.80;;
30472;SDS011;17263;48.160;11.452;2022-09-09T13:12:43;2.50;;;0.90;;
30472;SDS011;17263;48.160;11.452;2022-09-09T13:15:30;2.23;;;0.80;;
30472;SDS011;17263;48.160;11.452;2022-09-09T13:18:16;1.20;;;1.10;;
30472;SDS011;17263;48.160;11.452;2022-09-09T13:21:09;1.00;;;0.90;;
30472;SDS011;17263;48.160;11.452;2022-09-09T13:23:55;2.03;;;1.03;;
30472;SDS011;17263;48.160;11.452;2022-09-09T13:26:42;1.77;;;0.80;;
30472;SDS011;17263;48.160;11.452;2022-09-09T13:29:30;2.27;;;1.40;;
30472;SDS011;17263;48.160;11.452;2022-09-09T13:32:18;1.43;;;0.90;;
30472;SDS011;17263;48.160;11.452;2022-09-09T13:35:22;2.03;;;1.03;;
30472;SDS011;17263;48.160;11.452;2022-09-09T13:38:09;1.43;;;1.00;;
30472;SDS011;17263;48.160;11.452;2022-09-09T13:41:08;2.73;;;1.00;;
30472;SDS011;17263;48.160;11.452;2022-09-09T13:43:56;0.83;;;0.70;;
30472;SDS011;17263;48.160;11.452;2022-09-09T13:46:43;2.83;;;0.70;;
30472;SDS011;17263;48.160;11.452;2022-09-09T13:49:30;2.73;;;1.03;;
30472;SDS011;17263;48.160;11.452;2022-09-09T13:52:19;1.20;;;0.80;;
30472;SDS011;17263;48.160;11.452;2022-09-09T13:55:05;1.97;;;0.90;;
30472;SDS011;17263;48.160;11.452;2022-09-09T13:57:57;1.53;;;0.90;;
30472;SDS011;17263;48.160;11.452;2022-09-09T14:00:48;0.80;;;0.80;;
30472;SDS011;17263;48.160;11.452;2022-09-09T14:03:35;2.07;;;1.10;;
30472;SDS011;17263;48.160;11.452;2022-09-09T14:06:22;1.97;;;0.90;;
30472;SDS011;17263;48.160;11.452;2022-09-09T14:09:11;2.87;;;1.23;;
30472;SDS011;17263;48.160;11.452;2022-09-09T14:11:58;1.33;;;1.00;;
30472;SDS011;17263;48.160;11.452;2022-09-09T14:14:45;1.10;;;0.93;;
30472;SDS011;17263;48.160;11.452;2022-09-09T14:17:32;1.60;;;0.90;;
30472;SDS011;17263;48.160;11.452;2022-09-09T14:20:19;2.20;;;0.90;;
30472;SDS011;17263;48.160;11.452;2022-09-09T14:23:07;1.00;;;0.90;;
30472;SDS011;17263;48.160;11.452;2022-09-09T14:25:57;1.73;;;1.13;;
30472;SDS011;17263;48.160;11.452;2022-09-09T14:28:43;1.93;;;1.10;;
30472;SDS011;17263;48.160;11.452;2022-09-09T14:31:30;2.17;;;1.10;;
30472;SDS011;17263;48.160;11.452;2022-09-09T14:34:16;3.10;;;1.33;;
30472;SDS011;17263;48.160;11.452;2022-09-09T14:37:03;1.30;;;0.93;;
30472;SDS011;17263;48.160;11.452;2022-09-09T14:39:49;1.43;;;1.00;;
30472;SDS011;17263;48.160;11.452;2022-09-09T14:42:36;8.53;;;1.40;;
30472;SDS011;17263;48.160;11.452;2022-09-09T14:45:23;1.73;;;0.87;;
30472;SDS011;17263;48.160;11.452;2022-09-09T14:48:10;4.73;;;1.20;;
30472;SDS011;17263;48.160;11.452;2022-09-09T14:50:56;2.13;;;0.90;;
30472;SDS011;17263;48.160;11.452;2022-09-09T14:53:43;2.40;;;0.90;;
30472;SDS011;17263;48.160;11.452;2022-09-09T14:56:31;2.57;;;1.10;;
30472;SDS011;17263;48.160;11.452;2022-09-09T14:59:20;2.03;;;1.23;;
30472;SDS011;17263;48.160;11.452;2022-09-09T15:02:08;2.33;;;1.10;;
30472;SDS011;17263;48.160;11.452;2022-09-09T15:04:56;1.60;;;0.90;;
30472;SDS011;17263;48.160;11.452;2022-09-09T15:07:45;2.00;;;1.20;;
30472;SDS011;17263;48.160;11.452;2022-09-09T15:10:33;1.63;;;0.83;;
30472;SDS011;17263;48.160;11.452;2022-09-09T15:13:19;4.20;;;1.60;;
30472;SDS011;17263;48.160;11.452;2022-09-09T15:16:13;0.97;;;0.60;;
30472;SDS011;17263;48.160;11.452;2022-09-09T15:19:01;3.43;;;1.10;;
30472;SDS011;17263;48.160;11.452;2022-09-09T15:21:48;3.37;;;1.20;;
30472;SDS011;17263;48.160;11.452;2022-09-09T15:24:34;2.20;;;0.80;;
30472;SDS011;17263;48.160;11.452;2022-09-09T15:27:21;1.77;;;1.07;;
30472;SDS011;17263;48.160;11.452;2022-09-09T15:30:08;1.83;;;1.00;;
30472;SDS011;17263;48.160;11.452;2022-09-09T15:32:55;2.67;;;1.03;;
30472;SDS011;17263;48.160;11.452;2022-09-09T15:35:42;1.47;;;1.00;;
30472;SDS011;17263;48.160;11.452;2022-09-09T15:38:28;1.60;;;1.10;;
30472;SDS011;17263;48.160;11.452;2022-09-09T15:41:17;1.97;;;0.93;;
30472;SDS011;17263;48.160;11.452;2022-09-09T15:44:05;2.97;;;1.20;;
30472;SDS011;17263;48.160;11.452;2022-09-09T15:46:52;2.40;;;0.90;;
30472;SDS011;17263;48.160;11.452;2022-09-09T15:49:39;1.80;;;1.07;;
30472;SDS011;17263;48.160;11.452;2022-09-09T15:52:25;2.30;;;1.27;;
30472;SDS011;17263;48.160;11.452;2022-09-09T15:55:12;3.30;;;1.50;;
30472;SDS011;17263;48.160;11.452;2022-09-09T15:57:58;2.27;;;1.10;;
30472;SDS011;17263;48.160;11.452;2022-09-09T16:00:44;5.97;;;1.30;;
30472;SDS011;17263;48.160;11.452;2022-09-09T16:03:34;2.23;;;0.90;;
30472;SDS011;17263;48.160;11.452;2022-09-09T16:06:22;1.67;;;1.07;;
30472;SDS011;17263;48.160;11.452;2022-09-09T16:09:09;1.47;;;1.00;;
30472;SDS011;17263;48.160;11.452;2022-09-09T16:11:56;1.33;;;1.07;;
30472;SDS011;17263;48.160;11.452;2022-09-09T16:14:43;1.37;;;1.10;;
30472;SDS011;17263;48.160;11.452;2022-09-09T16:17:31;1.50;;;1.20;;
30472;SDS011;17263;48.160;11.452;2022-09-09T16:20:22;1.97;;;1.00;;
30472;SDS011;17263;48.160;11.452;2022-09-09T16:23:09;2.40;;;0.80;;
30472;SDS011;17263;48.160;11.452;2022-09-09T16:25:57;2.00;;;1.10;;
30472;SDS011;17263;48.160;11.452;2022-09-09T16:28:44;1.53;;;0.80;;
30472;SDS011;17263;48.160;11.452;2022-09-09T16:31:32;4.93;;;1.00;;
30472;SDS011;17263;48.160;11.452;2022-09-09T16:34:19;2.77;;;1.20;;
30472;SDS011;17263;48.160;11.452;2022-09-09T16:37:05;3.50;;;1.10;;
30472;SDS011;17263;48.160;11.452;2022-09-09T16:39:52;1.47;;;0.93;;
30472;SDS011;17263;48.160;11.452;2022-09-09T16:42:40;2.07;;;1.07;;
30472;SDS011;17263;48.160;11.452;2022-09-09T16:45:27;4.43;;;1.53;;
30472;SDS011;17263;48.160;11.452;2022-09-09T16:48:14;3.07;;;1.30;;
30472;SDS011;17263;48.160;11.452;2022-09-09T16:51:04;2.40;;;1.10;;
30472;SDS011;17263;48.160;11.452;2022-09-09T16:53:52;2.67;;;1.20;;
30472;SDS011;17263;48.160;11.452;2022-09-09T16:56:40;2.47;;;1.13;;
30472;SDS011;17263;48.160;11.452;2022-09-09T16:59:27;2.20;;;1.20;;
30472;SDS011;17263;48.160;11.452;2022-09-09T17:02:14;2.47;;;1.57;;
30472;SDS011;17263;48.160;11.452;2022-09-09T17:05:00;2.80;;;1.40;;
30472;SDS011;17263;48.160;11.452;2022-09-09T17:07:46;3.00;;;1.10;;
30472;SDS011;17263;48.160;11.452;2022-09-09T17:10:32;2.13;;;1.20;;
30472;SDS011;17263;48.160;11.452;2022-09-09T17:13:19;1.63;;;1.03;;
30472;SDS011;17263;48.160;11.452;2022-09-09T17:16:05;1.83;;;1.00;;
30472;SDS011;17263;48.160;11.452;2022-09-09T17:18:52;2.20;;;1.20;;
30472;SDS011;17263;48.160;11.452;2022-09-09T17:21:40;3.37;;;1.30;;
30472;SDS011;17263;48.160;11.452;2022-09-09T17:24:27;2.87;;;1.23;;
30472;SDS011;17263;48.160;11.452;2022-09-09T17:27:14;2.43;;;1.40;;
30472;SDS011;17263;48.160;11.452;2022-09-09T17:30:00;1.53;;;1.17;;
30472;SDS011;17263;48.160;11.452;2022-09-09T17:32:48;3.07;;;1.10;;
30472;SDS011;17263;48.160;11.452;2022-09-09T17:35:35;2.00;;;1.47;;
30472;SDS011;17263;48.160;11.452;2022-09-09T17:38:21;3.30;;;1.50;;
30472;SDS011;17263;48.160;11.452;2022-09-09T17:41:09;1.20;;;1.03;;
30472;SDS011;17263;48.160;11.452;2022-09-09T17:43:58;3.20;;;1.30;;
30472;SDS011;17263;48.160;11.452;2022-09-09T17:46:45;1.53;;;1.10;;
30472;SDS011;17263;48.160;11.452;2022-09-09T17:49:32;1.83;;;1.23;;
30472;SDS011;17263;48.160;11.452;2022-09-09T17:52:19;3.10;;;1.37;;
30472;SDS011;17263;48.160;11.452;2022-09-09T17:55:05;2.33;;;1.43;;
30472;SDS011;17263;48.160;11.452;2022-09-09T17:57:54;1.50;;;1.20;;
30472;SDS011;17263;48.160;11.452;2022-09-09T18:00:41;2.60;;;1.30;;
30472;SDS011;17263;48.160;11.452;2022-09-09T18:03:27;1.57;;;1.30;;
30472;SDS011;17263;48.160;11.452;2022-09-09T18:06:16;1.80;;;1.13;;
30472;SDS011;17263;48.160;11.452;2022-09-09T18:09:05;2.73;;;1.20;;
30472;SDS011;17263;48.160;11.452;2022-09-09T18:11:55;4.53;;;1.30;;
30472;SDS011;17263;48.160;11.452;2022-09-09T18:14:42;2.30;;;1.53;;
30472;SDS011;17263;48.160;11.452;2022-09-09T18:17:29;2.47;;;1.43;;